FWCL

Chileka International Airport

Blantyre, Malawi
METAR FWCL 171300Z 09005KT 9999 BKN030 SCT090 27/08 Q1021 NOSIG
Observed Flight Rules
Jun-17 @ 13:00 UTC (22 hours ago) Marginal Visual Flight Rules
Wind Visibility Clouds
90° at 5 knots 10,000+ meters
  • Broken at 3,000' AGL
  • Scattered at 9,000' AGL
Temperatures Readings
Current 27°C / 81°F
Dewpoint 8°C / 46°F
Humidity 30%
Altimeter 30.15" Hg
Pressure 1021 hPa
Elevation 767
METAR FWCL 171300Z 09005KT 9999 BKN030 SCT090 27/08 Q1021 NOSIG
Observed Flight Rules
Jun-17 @ 13:00 UTC
(22 hours ago)
MVFR
Wind Visibility
90° at 5 knots 10,000+ meters
Clouds
  • Broken at 3,000' AGL
  • Scattered at 9,000' AGL
Temperature Dewpoint
27°C / 81°F 8°C / 46°F
Humidity Altimeter Pressure
30% 30.15" Hg 1021 hPa